sensor_id;sensor_type;location;lat;lon;timestamp;temperature;humidity
54558;DHT22;40452;50.080;20.040;2022-12-17T06:06:08;19.70;32.20
54558;DHT22;40452;50.080;20.040;2022-12-17T06:08:52;20.20;32.30
54558;DHT22;40452;50.080;20.040;2022-12-17T06:11:37;20.20;32.30
54558;DHT22;40452;50.080;20.040;2022-12-17T06:14:21;20.20;32.30
54558;DHT22;40452;50.080;20.040;2022-12-17T06:17:05;20.20;32.20
54558;DHT22;40452;50.080;20.040;2022-12-17T06:19:48;20.20;32.00
54558;DHT22;40452;50.080;20.040;2022-12-17T06:22:32;20.20;31.90
54558;DHT22;40452;50.080;20.040;2022-12-17T06:25:16;20.30;31.80
54558;DHT22;40452;50.080;20.040;2022-12-17T06:28:01;20.30;31.70
54558;DHT22;40452;50.080;20.040;2022-12-17T06:30:53;20.30;31.70
54558;DHT22;40452;50.080;20.040;2022-12-17T06:33:38;20.30;31.60
54558;DHT22;40452;50.080;20.040;2022-12-17T06:36:23;20.30;31.60
54558;DHT22;40452;50.080;20.040;2022-12-17T06:39:07;20.30;31.80
54558;DHT22;40452;50.080;20.040;2022-12-17T06:41:52;20.20;31.60
54558;DHT22;40452;50.080;20.040;2022-12-17T06:44:37;20.20;31.80
54558;DHT22;40452;50.080;20.040;2022-12-17T06:47:21;20.30;31.60
54558;DHT22;40452;50.080;20.040;2022-12-17T06:50:06;20.20;31.90
54558;DHT22;40452;50.080;20.040;2022-12-17T06:52:58;20.20;32.00
54558;DHT22;40452;50.080;20.040;2022-12-17T06:55:42;20.20;32.10
54558;DHT22;40452;50.080;20.040;2022-12-17T06:58:26;20.20;31.90
54558;DHT22;40452;50.080;20.040;2022-12-17T07:01:10;20.20;32.20
54558;DHT22;40452;50.080;20.040;2022-12-17T07:03:54;20.20;32.50
54558;DHT22;40452;50.080;20.040;2022-12-17T07:06:38;20.20;32.30
54558;DHT22;40452;50.080;20.040;2022-12-17T07:09:22;20.20;32.40
54558;DHT22;40452;50.080;20.040;2022-12-17T07:12:06;20.20;32.40
54558;DHT22;40452;50.080;20.040;2022-12-17T07:14:50;20.10;32.30
54558;DHT22;40452;50.080;20.040;2022-12-17T07:17:34;20.10;32.40
54558;DHT22;40452;50.080;20.040;2022-12-17T07:20:18;20.10;32.50
54558;DHT22;40452;50.080;20.040;2022-12-17T07:23:02;20.20;32.70
54558;DHT22;40452;50.080;20.040;2022-12-17T07:25:46;20.20;33.00
54558;DHT22;40452;50.080;20.040;2022-12-17T07:28:30;20.10;33.20
54558;DHT22;40452;50.080;20.040;2022-12-17T07:31:14;20.10;33.20
54558;DHT22;40452;50.080;20.040;2022-12-17T07:33:58;20.20;33.20
54558;DHT22;40452;50.080;20.040;2022-12-17T07:36:42;20.20;33.10
54558;DHT22;40452;50.080;20.040;2022-12-17T07:39:26;20.20;33.50
54558;DHT22;40452;50.080;20.040;2022-12-17T07:42:10;20.20;33.70
54558;DHT22;40452;50.080;20.040;2022-12-17T07:44:54;20.30;33.70
54558;DHT22;40452;50.080;20.040;2022-12-17T07:47:38;20.30;33.70
54558;DHT22;40452;50.080;20.040;2022-12-17T07:50:22;20.20;33.80
54558;DHT22;40452;50.080;20.040;2022-12-17T07:53:06;20.30;33.80
54558;DHT22;40452;50.080;20.040;2022-12-17T07:55:50;20.30;33.60
54558;DHT22;40452;50.080;20.040;2022-12-17T07:58:34;20.30;33.80
54558;DHT22;40452;50.080;20.040;2022-12-17T08:01:18;20.30;33.50
54558;DHT22;40452;50.080;20.040;2022-12-17T08:04:02;20.30;33.60
54558;DHT22;40452;50.080;20.040;2022-12-17T08:06:47;20.30;33.60
54558;DHT22;40452;50.080;20.040;2022-12-17T08:09:30;20.30;33.70
54558;DHT22;40452;50.080;20.040;2022-12-17T08:12:14;20.40;33.60
54558;DHT22;40452;50.080;20.040;2022-12-17T08:14:59;20.40;33.60
54558;DHT22;40452;50.080;20.040;2022-12-17T08:17:43;20.30;33.60
54558;DHT22;40452;50.080;20.040;2022-12-17T08:20:27;20.30;33.60
54558;DHT22;40452;50.080;20.040;2022-12-17T08:23:11;20.40;33.70
54558;DHT22;40452;50.080;20.040;2022-12-17T08:25:55;20.30;33.60
54558;DHT22;40452;50.080;20.040;2022-12-17T08:28:39;20.30;33.50
54558;DHT22;40452;50.080;20.040;2022-12-17T08:31:24;20.40;33.50
54558;DHT22;40452;50.080;20.040;2022-12-17T08:34:08;20.40;33.20
54558;DHT22;40452;50.080;20.040;2022-12-17T08:36:52;20.40;33.50
54558;DHT22;40452;50.080;20.040;2022-12-17T08:39:36;20.40;33.50
54558;DHT22;40452;50.080;20.040;2022-12-17T08:42:20;20.50;33.80
54558;DHT22;40452;50.080;20.040;2022-12-17T08:45:05;20.50;33.60
54558;DHT22;40452;50.080;20.040;2022-12-17T08:47:49;20.50;33.70
54558;DHT22;40452;50.080;20.040;2022-12-17T08:50:33;20.50;33.80
54558;DHT22;40452;50.080;20.040;2022-12-17T08:53:17;20.50;33.70
54558;DHT22;40452;50.080;20.040;2022-12-17T08:56:01;20.50;33.80
54558;DHT22;40452;50.080;20.040;2022-12-17T08:58:46;20.50;33.70
54558;DHT22;40452;50.080;20.040;2022-12-17T09:01:30;20.50;33.80
54558;DHT22;40452;50.080;20.040;2022-12-17T09:04:14;20.50;33.70
54558;DHT22;40452;50.080;20.040;2022-12-17T09:06:58;20.50;33.60
54558;DHT22;40452;50.080;20.040;2022-12-17T09:09:42;20.50;33.60
54558;DHT22;40452;50.080;20.040;2022-12-17T09:12:33;20.50;33.60
54558;DHT22;40452;50.080;20.040;2022-12-17T09:15:17;20.50;33.50
54558;DHT22;40452;50.080;20.040;2022-12-17T09:18:02;20.50;33.30
54558;DHT22;40452;50.080;20.040;2022-12-17T09:20:52;20.40;33.20
54558;DHT22;40452;50.080;20.040;2022-12-17T09:23:36;20.40;33.20
54558;DHT22;40452;50.080;20.040;2022-12-17T09:26:20;20.40;33.30
54558;DHT22;40452;50.080;20.040;2022-12-17T09:29:04;20.40;33.00
54558;DHT22;40452;50.080;20.040;2022-12-17T09:31:48;20.40;33.10
54558;DHT22;40452;50.080;20.040;2022-12-17T09:34:32;20.30;33.10
54558;DHT22;40452;50.080;20.040;2022-12-17T09:37:16;20.40;33.20
54558;DHT22;40452;50.080;20.040;2022-12-17T09:39:59;20.30;33.10
54558;DHT22;40452;50.080;20.040;2022-12-17T09:43:22;20.30;33.20
54558;DHT22;40452;50.080;20.040;2022-12-17T09:46:19;20.30;33.20
54558;DHT22;40452;50.080;20.040;2022-12-17T09:49:18;20.30;33.10
54558;DHT22;40452;50.080;20.040;2022-12-17T09:52:26;20.30;33.10
54558;DHT22;40452;50.080;20.040;2022-12-17T09:55:24;20.30;33.90
54558;DHT22;40452;50.080;20.040;2022-12-17T09:58:18;20.30;33.20
54558;DHT22;40452;50.080;20.040;2022-12-17T10:01:04;20.30;33.20
54558;DHT22;40452;50.080;20.040;2022-12-17T10:03:49;20.30;33.10
54558;DHT22;40452;50.080;20.040;2022-12-17T10:06:34;20.30;33.10
54558;DHT22;40452;50.080;20.040;2022-12-17T10:09:18;20.30;33.10
54558;DHT22;40452;50.080;20.040;2022-12-17T10:12:14;20.30;33.00
54558;DHT22;40452;50.080;20.040;2022-12-17T10:15:00;20.30;33.10
54558;DHT22;40452;50.080;20.040;2022-12-17T10:17:44;20.30;33.10
54558;DHT22;40452;50.080;20.040;2022-12-17T10:23:23;20.30;33.20
54558;DHT22;40452;50.080;20.040;2022-12-17T10:26:08;20.30;33.00
54558;DHT22;40452;50.080;20.040;2022-12-17T10:29:01;20.30;33.10
54558;DHT22;40452;50.080;20.040;2022-12-17T10:31:45;20.30;33.00
54558;DHT22;40452;50.080;20.040;2022-12-17T10:34:35;20.30;33.00
54558;DHT22;40452;50.080;20.040;2022-12-17T10:37:20;20.30;33.10
54558;DHT22;40452;50.080;20.040;2022-12-17T10:40:21;20.30;33.10
54558;DHT22;40452;50.080;20.040;2022-12-17T10:43:20;20.20;33.10
54558;DHT22;40452;50.080;20.040;2022-12-17T10:46:04;20.20;33.10
54558;DHT22;40452;50.080;20.040;2022-12-17T10:48:48;20.20;33.00
54558;DHT22;40452;50.080;20.040;2022-12-17T10:51:34;20.20;33.00
54558;DHT22;40452;50.080;20.040;2022-12-17T11:03:02;20.20;32.90
54558;DHT22;40452;50.080;20.040;2022-12-17T11:05:49;20.20;32.90
54558;DHT22;40452;50.080;20.040;2022-12-17T11:08:36;20.20;33.00
54558;DHT22;40452;50.080;20.040;2022-12-17T11:11:22;20.20;33.10
54558;DHT22;40452;50.080;20.040;2022-12-17T11:14:08;20.20;32.80
54558;DHT22;40452;50.080;20.040;2022-12-17T11:16:54;20.20;33.00
54558;DHT22;40452;50.080;20.040;2022-12-17T11:20:17;20.20;32.90
54558;DHT22;40452;50.080;20.040;2022-12-17T11:23:02;20.20;32.90
54558;DHT22;40452;50.080;20.040;2022-12-17T11:26:09;20.20;32.80
54558;DHT22;40452;50.080;20.040;2022-12-17T11:28:57;20.20;32.70
54558;DHT22;40452;50.080;20.040;2022-12-17T11:37:50;20.20;32.90
54558;DHT22;40452;50.080;20.040;2022-12-17T11:40:38;20.20;32.80
54558;DHT22;40452;50.080;20.040;2022-12-17T11:49:37;20.20;33.20
54558;DHT22;40452;50.080;20.040;2022-12-17T11:52:26;20.20;33.10
54558;DHT22;40452;50.080;20.040;2022-12-17T11:55:39;20.20;32.80
54558;DHT22;40452;50.080;20.040;2022-12-17T11:58:40;20.20;32.90
54558;DHT22;40452;50.080;20.040;2022-12-17T12:05:16;20.20;33.10
54558;DHT22;40452;50.080;20.040;2022-12-17T12:08:22;20.20;33.10
54558;DHT22;40452;50.080;20.040;2022-12-17T12:11:20;20.20;33.00
54558;DHT22;40452;50.080;20.040;2022-12-17T12:14:14;20.10;33.00
54558;DHT22;40452;50.080;20.040;2022-12-17T12:17:22;20.10;32.90
54558;DHT22;40452;50.080;20.040;2022-12-17T12:23:53;20.10;32.60
54558;DHT22;40452;50.080;20.040;2022-12-17T12:27:03;20.20;32.80
54558;DHT22;40452;50.080;20.040;2022-12-17T12:36:00;20.20;32.30
54558;DHT22;40452;50.080;20.040;2022-12-17T12:38:47;20.20;32.40
54558;DHT22;40452;50.080;20.040;2022-12-17T12:41:53;20.20;32.50
54558;DHT22;40452;50.080;20.040;2022-12-17T12:45:05;20.20;32.60
54558;DHT22;40452;50.080;20.040;2022-12-17T12:53:21;20.20;32.60
54558;DHT22;40452;50.080;20.040;2022-12-17T12:56:27;20.20;32.70
54558;DHT22;40452;50.080;20.040;2022-12-17T12:59:25;20.20;32.90
54558;DHT22;40452;50.080;20.040;2022-12-17T13:02:26;20.20;32.90
54558;DHT22;40452;50.080;20.040;2022-12-17T13:05:24;20.20;32.90
54558;DHT22;40452;50.080;20.040;2022-12-17T13:10:34;20.20;32.80
54558;DHT22;40452;50.080;20.040;2022-12-17T13:15:42;20.20;32.90
54558;DHT22;40452;50.080;20.040;2022-12-17T13:20:54;20.20;32.70
54558;DHT22;40452;50.080;20.040;2022-12-17T13:23:33;20.20;32.60
54558;DHT22;40452;50.080;20.040;2022-12-17T13:29:09;20.20;33.20
54558;DHT22;40452;50.080;20.040;2022-12-17T13:32:08;20.20;33.20
54558;DHT22;40452;50.080;20.040;2022-12-17T13:40:42;20.20;33.40
54558;DHT22;40452;50.080;20.040;2022-12-17T13:43:19;20.20;33.20
54558;DHT22;40452;50.080;20.040;2022-12-17T13:45:45;20.20;33.50
54558;DHT22;40452;50.080;20.040;2022-12-17T13:48:20;20.20;33.40
54558;DHT22;40452;50.080;20.040;2022-12-17T13:53:24;20.20;33.20
54558;DHT22;40452;50.080;20.040;2022-12-17T13:55:55;20.30;33.30
54558;DHT22;40452;50.080;20.040;2022-12-17T13:58:31;20.30;33.20
54558;DHT22;40452;50.080;20.040;2022-12-17T14:01:26;20.30;33.10
54558;DHT22;40452;50.080;20.040;2022-12-17T14:03:54;20.30;33.40
54558;DHT22;40452;50.080;20.040;2022-12-17T14:06:23;20.30;33.30
54558;DHT22;40452;50.080;20.040;2022-12-17T14:08:51;20.40;33.40
54558;DHT22;40452;50.080;20.040;2022-12-17T14:11:17;20.30;33.30
54558;DHT22;40452;50.080;20.040;2022-12-17T14:14:01;20.40;33.30
54558;DHT22;40452;50.080;20.040;2022-12-17T14:16:27;20.40;33.30
54558;DHT22;40452;50.080;20.040;2022-12-17T14:18:56;20.40;33.20
54558;DHT22;40452;50.080;20.040;2022-12-17T14:21:22;20.40;33.00
54558;DHT22;40452;50.080;20.040;2022-12-17T14:23:50;20.40;32.90
54558;DHT22;40452;50.080;20.040;2022-12-17T14:26:16;20.40;32.60
54558;DHT22;40452;50.080;20.040;2022-12-17T14:28:46;20.40;32.60
54558;DHT22;40452;50.080;20.040;2022-12-17T14:33:47;20.50;32.10
54558;DHT22;40452;50.080;20.040;2022-12-17T14:36:20;20.50;32.20
54558;DHT22;40452;50.080;20.040;2022-12-17T14:38:52;20.60;32.40
54558;DHT22;40452;50.080;20.040;2022-12-17T14:41:18;20.60;33.10
54558;DHT22;40452;50.080;20.040;2022-12-17T14:44:03;20.70;33.70
54558;DHT22;40452;50.080;20.040;2022-12-17T14:46:30;20.70;34.70
54558;DHT22;40452;50.080;20.040;2022-12-17T14:48:58;20.70;35.30
54558;DHT22;40452;50.080;20.040;2022-12-17T14:51:40;20.70;35.30
54558;DHT22;40452;50.080;20.040;2022-12-17T14:54:27;20.70;36.70
54558;DHT22;40452;50.080;20.040;2022-12-17T14:56:55;20.70;37.40
54558;DHT22;40452;50.080;20.040;2022-12-17T14:59:35;20.60;38.80
54558;DHT22;40452;50.080;20.040;2022-12-17T15:02:04;20.60;39.80
54558;DHT22;40452;50.080;20.040;2022-12-17T15:04:36;20.60;40.70
54558;DHT22;40452;50.080;20.040;2022-12-17T15:07:02;20.70;42.20
54558;DHT22;40452;50.080;20.040;2022-12-17T15:09:28;20.70;43.40
54558;DHT22;40452;50.080;20.040;2022-12-17T15:11:53;20.70;46.10
54558;DHT22;40452;50.080;20.040;2022-12-17T15:14:19;20.60;45.30
54558;DHT22;40452;50.080;20.040;2022-12-17T15:16:44;20.70;44.80
54558;DHT22;40452;50.080;20.040;2022-12-17T15:19:10;20.80;45.50
54558;DHT22;40452;50.080;20.040;2022-12-17T15:21:36;20.80;44.60
54558;DHT22;40452;50.080;20.040;2022-12-17T15:24:01;20.80;43.70
54558;DHT22;40452;50.080;20.040;2022-12-17T15:26:27;20.70;43.70
54558;DHT22;40452;50.080;20.040;2022-12-17T15:28:52;20.80;43.20
54558;DHT22;40452;50.080;20.040;2022-12-17T15:31:18;20.80;43.50
54558;DHT22;40452;50.080;20.040;2022-12-17T15:33:43;20.80;43.10
54558;DHT22;40452;50.080;20.040;2022-12-17T15:36:10;20.70;42.70
54558;DHT22;40452;50.080;20.040;2022-12-17T15:38:36;20.70;42.40
54558;DHT22;40452;50.080;20.040;2022-12-17T15:41:03;20.70;42.10
54558;DHT22;40452;50.080;20.040;2022-12-17T15:43:48;20.70;42.10
54558;DHT22;40452;50.080;20.040;2022-12-17T15:46:14;20.70;41.30
54558;DHT22;40452;50.080;20.040;2022-12-17T15:48:39;20.60;42.10
54558;DHT22;40452;50.080;20.040;2022-12-17T15:51:05;20.70;43.10
54558;DHT22;40452;50.080;20.040;2022-12-17T15:53:30;20.70;42.40
54558;DHT22;40452;50.080;20.040;2022-12-17T15:56:00;20.70;41.60
54558;DHT22;40452;50.080;20.040;2022-12-17T15:58:26;20.80;41.30
54558;DHT22;40452;50.080;20.040;2022-12-17T16:00:51;20.70;40.80
54558;DHT22;40452;50.080;20.040;2022-12-17T16:03:16;20.70;41.10
54558;DHT22;40452;50.080;20.040;2022-12-17T16:05:42;20.60;40.70
54558;DHT22;40452;50.080;20.040;2022-12-17T16:08:08;20.60;40.20
54558;DHT22;40452;50.080;20.040;2022-12-17T16:10:33;20.60;39.80
54558;DHT22;40452;50.080;20.040;2022-12-17T16:12:59;20.60;39.60
54558;DHT22;40452;50.080;20.040;2022-12-17T16:15:25;20.60;39.50
54558;DHT22;40452;50.080;20.040;2022-12-17T16:17:50;20.60;39.20
54558;DHT22;40452;50.080;20.040;2022-12-17T16:20:16;20.60;39.00
54558;DHT22;40452;50.080;20.040;2022-12-17T16:22:41;20.50;38.80
54558;DHT22;40452;50.080;20.040;2022-12-17T16:25:07;20.50;38.50
54558;DHT22;40452;50.080;20.040;2022-12-17T16:27:33;20.60;38.00
54558;DHT22;40452;50.080;20.040;2022-12-17T16:29:58;20.60;37.80
54558;DHT22;40452;50.080;20.040;2022-12-17T16:32:24;20.60;38.50
54558;DHT22;40452;50.080;20.040;2022-12-17T16:34:49;20.60;38.50
54558;DHT22;40452;50.080;20.040;2022-12-17T16:37:15;20.60;38.40
54558;DHT22;40452;50.080;20.040;2022-12-17T16:39:40;20.70;38.10
54558;DHT22;40452;50.080;20.040;2022-12-17T16:42:06;20.70;37.20
54558;DHT22;40452;50.080;20.040;2022-12-17T16:44:31;20.70;37.10
54558;DHT22;40452;50.080;20.040;2022-12-17T16:46:57;20.60;37.00
54558;DHT22;40452;50.080;20.040;2022-12-17T16:49:23;20.60;36.80
54558;DHT22;40452;50.080;20.040;2022-12-17T16:51:50;20.60;36.70
54558;DHT22;40452;50.080;20.040;2022-12-17T16:54:19;20.70;36.50
54558;DHT22;40452;50.080;20.040;2022-12-17T16:56:45;20.70;36.30
54558;DHT22;40452;50.080;20.040;2022-12-17T16:59:13;20.60;36.10
54558;DHT22;40452;50.080;20.040;2022-12-17T17:01:40;20.70;36.00
54558;DHT22;40452;50.080;20.040;2022-12-17T17:04:07;20.60;35.80
54558;DHT22;40452;50.080;20.040;2022-12-17T17:06:38;20.60;35.60
54558;DHT22;40452;50.080;20.040;2022-12-17T17:09:04;20.60;35.60
54558;DHT22;40452;50.080;20.040;2022-12-17T17:11:30;20.60;35.60
54558;DHT22;40452;50.080;20.040;2022-12-17T17:13:55;20.60;35.60
54558;DHT22;40452;50.080;20.040;2022-12-17T17:16:22;20.60;35.30
54558;DHT22;40452;50.080;20.040;2022-12-17T17:18:49;20.60;35.30
54558;DHT22;40452;50.080;20.040;2022-12-17T17:23:44;20.50;35.10
54558;DHT22;40452;50.080;20.040;2022-12-17T17:26:11;20.60;35.10
54558;DHT22;40452;50.080;20.040;2022-12-17T17:28:37;20.50;35.00
54558;DHT22;40452;50.080;20.040;2022-12-17T17:31:04;20.50;34.80
54558;DHT22;40452;50.080;20.040;2022-12-17T17:33:38;20.60;34.80
54558;DHT22;40452;50.080;20.040;2022-12-17T17:36:09;20.60;34.40
54558;DHT22;40452;50.080;20.040;2022-12-17T17:38:37;20.60;34.50
54558;DHT22;40452;50.080;20.040;2022-12-17T17:41:03;20.60;34.40
54558;DHT22;40452;50.080;20.040;2022-12-17T17:43:30;20.60;34.90
54558;DHT22;40452;50.080;20.040;2022-12-17T17:46:16;20.60;35.10
54558;DHT22;40452;50.080;20.040;2022-12-17T17:48:42;20.60;35.00
54558;DHT22;40452;50.080;20.040;2022-12-17T17:51:14;20.50;34.80
54558;DHT22;40452;50.080;20.040;2022-12-17T17:53:44;20.60;35.00
54558;DHT22;40452;50.080;20.040;2022-12-17T17:56:12;20.70;34.60
54558;DHT22;40452;50.080;20.040;2022-12-17T17:58:42;20.60;34.60
54558;DHT22;40452;50.080;20.040;2022-12-17T18:01:10;20.60;34.50
54558;DHT22;40452;50.080;20.040;2022-12-17T18:03:35;20.70;35.70
54558;DHT22;40452;50.080;20.040;2022-12-17T18:06:03;20.70;36.00
54558;DHT22;40452;50.080;20.040;2022-12-17T18:08:30;20.70;35.40
54558;DHT22;40452;50.080;20.040;2022-12-17T18:10:57;20.60;34.70
54558;DHT22;40452;50.080;20.040;2022-12-17T18:13:22;20.60;34.70
54558;DHT22;40452;50.080;20.040;2022-12-17T18:16:06;20.60;34.70
54558;DHT22;40452;50.080;20.040;2022-12-17T18:18:32;20.60;34.50
54558;DHT22;40452;50.080;20.040;2022-12-17T18:21:06;20.60;34.40
54558;DHT22;40452;50.080;20.040;2022-12-17T18:23:33;20.50;34.30
54558;DHT22;40452;50.080;20.040;2022-12-17T18:28:38;20.50;34.10
54558;DHT22;40452;50.080;20.040;2022-12-17T18:31:11;20.50;34.00
54558;DHT22;40452;50.080;20.040;2022-12-17T18:33:39;20.50;33.90
54558;DHT22;40452;50.080;20.040;2022-12-17T18:36:10;20.60;36.50
54558;DHT22;40452;50.080;20.040;2022-12-17T18:38:36;20.60;35.60
54558;DHT22;40452;50.080;20.040;2022-12-17T18:41:20;20.60;36.10
54558;DHT22;40452;50.080;20.040;2022-12-17T18:44:05;20.70;36.50
54558;DHT22;40452;50.080;20.040;2022-12-17T18:46:31;20.60;36.30
54558;DHT22;40452;50.080;20.040;2022-12-17T18:48:59;20.70;35.70
54558;DHT22;40452;50.080;20.040;2022-12-17T18:51:26;20.70;36.10
54558;DHT22;40452;50.080;20.040;2022-12-17T18:53:55;20.70;36.50
54558;DHT22;40452;50.080;20.040;2022-12-17T18:56:21;20.70;36.60
54558;DHT22;40452;50.080;20.040;2022-12-17T18:58:47;20.60;36.60
54558;DHT22;40452;50.080;20.040;2022-12-17T19:01:21;20.60;36.60
54558;DHT22;40452;50.080;20.040;2022-12-17T19:03:47;20.60;36.90
54558;DHT22;40452;50.080;20.040;2022-12-17T19:06:13;20.60;36.90
54558;DHT22;40452;50.080;20.040;2022-12-17T19:08:39;20.70;36.80
54558;DHT22;40452;50.080;20.040;2022-12-17T19:11:06;20.60;36.60
54558;DHT22;40452;50.080;20.040;2022-12-17T19:13:32;20.60;36.40
54558;DHT22;40452;50.080;20.040;2022-12-17T19:16:16;20.70;36.70
54558;DHT22;40452;50.080;20.040;2022-12-17T19:18:42;20.60;37.40
54558;DHT22;40452;50.080;20.040;2022-12-17T19:21:12;20.60;37.80
54558;DHT22;40452;50.080;20.040;2022-12-17T19:23:39;20.50;38.30
54558;DHT22;40452;50.080;20.040;2022-12-17T19:26:10;20.50;37.70
54558;DHT22;40452;50.080;20.040;2022-12-17T19:28:41;20.50;37.20
54558;DHT22;40452;50.080;20.040;2022-12-17T19:31:07;20.50;37.10
54558;DHT22;40452;50.080;20.040;2022-12-17T19:33:34;20.50;37.00
54558;DHT22;40452;50.080;20.040;2022-12-17T19:36:07;20.50;37.20
54558;DHT22;40452;50.080;20.040;2022-12-17T19:38:33;20.50;37.20
54558;DHT22;40452;50.080;20.040;2022-12-17T19:41:06;20.50;36.90
54558;DHT22;40452;50.080;20.040;2022-12-17T19:43:32;20.50;36.70
54558;DHT22;40452;50.080;20.040;2022-12-17T19:46:09;20.50;37.10
54558;DHT22;40452;50.080;20.040;2022-12-17T19:48:37;20.50;36.30
54558;DHT22;40452;50.080;20.040;2022-12-17T19:51:04;20.50;36.00
54558;DHT22;40452;50.080;20.040;2022-12-17T19:53:31;20.50;36.10
54558;DHT22;40452;50.080;20.040;2022-12-17T19:56:18;20.40;35.80
54558;DHT22;40452;50.080;20.040;2022-12-17T19:58:46;20.50;35.50
54558;DHT22;40452;50.080;20.040;2022-12-17T20:01:15;20.40;35.40
54558;DHT22;40452;50.080;20.040;2022-12-17T20:03:41;20.40;35.60
54558;DHT22;40452;50.080;20.040;2022-12-17T20:06:08;20.40;35.50
54558;DHT22;40452;50.080;20.040;2022-12-17T20:08:35;20.40;35.50
54558;DHT22;40452;50.080;20.040;2022-12-17T20:11:02;20.40;35.30
54558;DHT22;40452;50.080;20.040;2022-12-17T20:13:28;20.40;35.50
54558;DHT22;40452;50.080;20.040;2022-12-17T20:16:03;20.40;35.20
54558;DHT22;40452;50.080;20.040;2022-12-17T20:18:29;20.40;35.10
54558;DHT22;40452;50.080;20.040;2022-12-17T20:21:04;20.40;35.10
54558;DHT22;40452;50.080;20.040;2022-12-17T20:23:30;20.40;35.20
54558;DHT22;40452;50.080;20.040;2022-12-17T20:26:08;20.40;35.10
54558;DHT22;40452;50.080;20.040;2022-12-17T20:28:34;20.40;35.50
54558;DHT22;40452;50.080;20.040;2022-12-17T20:31:00;20.40;35.50
54558;DHT22;40452;50.080;20.040;2022-12-17T20:33:26;20.40;35.70
54558;DHT22;40452;50.080;20.040;2022-12-17T20:35:52;20.40;34.80
54558;DHT22;40452;50.080;20.040;2022-12-17T20:38:18;20.30;34.10
54558;DHT22;40452;50.080;20.040;2022-12-17T20:40:44;20.30;33.40
54558;DHT22;40452;50.080;20.040;2022-12-17T20:43:09;20.30;32.80
54558;DHT22;40452;50.080;20.040;2022-12-17T20:45:35;20.20;32.50
54558;DHT22;40452;50.080;20.040;2022-12-17T20:48:00;20.20;32.10
54558;DHT22;40452;50.080;20.040;2022-12-17T20:50:26;20.20;31.70
54558;DHT22;40452;50.080;20.040;2022-12-17T20:52:52;20.20;32.80
54558;DHT22;40452;50.080;20.040;2022-12-17T20:55:17;20.20;32.90
54558;DHT22;40452;50.080;20.040;2022-12-17T20:57:43;20.20;32.60
54558;DHT22;40452;50.080;20.040;2022-12-17T21:00:09;20.30;33.00
54558;DHT22;40452;50.080;20.040;2022-12-17T21:02:35;20.30;33.00
54558;DHT22;40452;50.080;20.040;2022-12-17T21:05:01;20.30;33.10
54558;DHT22;40452;50.080;20.040;2022-12-17T21:07:27;20.30;33.20
54558;DHT22;40452;50.080;20.040;2022-12-17T21:09:52;20.30;33.20
54558;DHT22;40452;50.080;20.040;2022-12-17T21:12:18;20.30;32.80
54558;DHT22;40452;50.080;20.040;2022-12-17T21:14:44;20.30;32.30
54558;DHT22;40452;50.080;20.040;2022-12-17T21:17:09;20.30;31.90
54558;DHT22;40452;50.080;20.040;2022-12-17T21:19:35;20.30;32.00
54558;DHT22;40452;50.080;20.040;2022-12-17T21:22:00;20.40;32.00
54558;DHT22;40452;50.080;20.040;2022-12-17T21:24:26;20.40;31.70
54558;DHT22;40452;50.080;20.040;2022-12-17T21:26:52;20.40;31.90
54558;DHT22;40452;50.080;20.040;2022-12-17T21:29:18;20.40;31.80
54558;DHT22;40452;50.080;20.040;2022-12-17T21:31:48;20.40;31.90
54558;DHT22;40452;50.080;20.040;2022-12-17T21:34:21;20.30;31.50
54558;DHT22;40452;50.080;20.040;2022-12-17T21:36:48;20.40;31.50
54558;DHT22;40452;50.080;20.040;2022-12-17T21:39:15;20.40;31.40
54558;DHT22;40452;50.080;20.040;2022-12-17T21:41:42;20.40;31.50
54558;DHT22;40452;50.080;20.040;2022-12-17T21:44:10;20.50;31.40
54558;DHT22;40452;50.080;20.040;2022-12-17T21:46:35;20.40;31.70
54558;DHT22;40452;50.080;20.040;2022-12-17T21:49:02;20.40;31.60
54558;DHT22;40452;50.080;20.040;2022-12-17T21:51:29;20.40;31.70
54558;DHT22;40452;50.080;20.040;2022-12-17T21:54:00;20.40;31.70
54558;DHT22;40452;50.080;20.040;2022-12-17T21:56:28;20.40;31.90
54558;DHT22;40452;50.080;20.040;2022-12-17T21:58:58;20.40;31.80
54558;DHT22;40452;50.080;20.040;2022-12-17T22:01:28;20.40;31.70
54558;DHT22;40452;50.080;20.040;2022-12-17T22:03:56;20.50;31.90
54558;DHT22;40452;50.080;20.040;2022-12-17T22:06:24;20.50;32.10
54558;DHT22;40452;50.080;20.040;2022-12-17T22:08:50;20.40;31.80
54558;DHT22;40452;50.080;20.040;2022-12-17T22:11:18;20.40;31.50
54558;DHT22;40452;50.080;20.040;2022-12-17T22:13:44;20.40;31.50
54558;DHT22;40452;50.080;20.040;2022-12-17T22:16:30;20.40;31.50
54558;DHT22;40452;50.080;20.040;2022-12-17T22:18:57;20.40;31.40
54558;DHT22;40452;50.080;20.040;2022-12-17T22:21:23;20.40;31.40
54558;DHT22;40452;50.080;20.040;2022-12-17T22:23:49;20.40;31.10
54558;DHT22;40452;50.080;20.040;2022-12-17T22:26:16;20.40;31.00
54558;DHT22;40452;50.080;20.040;2022-12-17T22:28:43;20.40;31.20
54558;DHT22;40452;50.080;20.040;2022-12-17T22:31:13;20.40;31.20
54558;DHT22;40452;50.080;20.040;2022-12-17T22:33:58;20.40;31.10
54558;DHT22;40452;50.080;20.040;2022-12-17T22:36:27;20.40;31.10
54558;DHT22;40452;50.080;20.040;2022-12-17T22:38:52;20.40;30.90
54558;DHT22;40452;50.080;20.040;2022-12-17T22:41:18;20.40;30.90
54558;DHT22;40452;50.080;20.040;2022-12-17T22:44:02;20.40;30.90
54558;DHT22;40452;50.080;20.040;2022-12-17T22:46:30;20.40;31.60
54558;DHT22;40452;50.080;20.040;2022-12-17T22:48:57;20.40;31.20
54558;DHT22;40452;50.080;20.040;2022-12-17T22:51:24;20.40;31.00
54558;DHT22;40452;50.080;20.040;2022-12-17T22:53:51;20.40;30.70
54558;DHT22;40452;50.080;20.040;2022-12-17T22:56:18;20.40;31.30
54558;DHT22;40452;50.080;20.040;2022-12-17T22:58:43;20.40;30.70
54558;DHT22;40452;50.080;20.040;2022-12-17T23:01:09;20.30;30.80
54558;DHT22;40452;50.080;20.040;2022-12-17T23:03:36;20.40;30.90
54558;DHT22;40452;50.080;20.040;2022-12-17T23:06:11;20.40;30.50
54558;DHT22;40452;50.080;20.040;2022-12-17T23:08:38;20.40;30.90
54558;DHT22;40452;50.080;20.040;2022-12-17T23:11:08;20.40;30.80
54558;DHT22;40452;50.080;20.040;2022-12-17T23:13:34;20.40;30.80
54558;DHT22;40452;50.080;20.040;2022-12-17T23:16:01;20.30;30.50
54558;DHT22;40452;50.080;20.040;2022-12-17T23:18:26;20.40;30.50
54558;DHT22;40452;50.080;20.040;2022-12-17T23:20:52;20.30;30.80
54558;DHT22;40452;50.080;20.040;2022-12-17T23:23:18;20.30;30.80